Time;durP1;ratioP1;P1;durP2;ratioP2;P2;SDS_P1;SDS_P2;PMS_P1;PMS_P2;Temp;Humidity;BMP_temperature;BMP_pressure;BME280_temperature;BME280_humidity;BME280_pressure;Samples;Min_cycle;Max_cycle;Signal;HPM_P1;HPM_P2
2022/09/28 00:01:59;;;;;;;16.33;8.65;;;;;;;;;;5113802;28;20096;-64
2022/09/28 00:04:26;;;;;;;16.52;9.25;;;;;;;;;;5113200;28;20214;-64
2022/09/28 00:06:52;;;;;;;16.92;9.75;;;;;;;;;;5113819;28;20036;-64
2022/09/28 00:09:18;;;;;;;15.63;10.32;;;;;;;;;;5113102;28;20055;-64
2022/09/28 00:11:44;;;;;;;15.18;10.10;;;;;;;;;;5112947;28;20040;-64
2022/09/28 00:14:11;;;;;;;15.20;10.50;;;;;;;;;;5113734;28;20035;-64
2022/09/28 00:16:42;;;;;;;15.48;9.98;;;;;;;;;;5113764;28;20055;-64
2022/09/28 00:19:09;;;;;;;15.98;10.52;;;;;;;;;;5113115;28;20350;-64
2022/09/28 00:21:36;;;;;;;17.98;10.38;;;;;;;;;;5113456;28;20040;-64
2022/09/28 00:24:14;;;;;;;13.98;10.18;;;;;;;;;;5113510;28;20036;-64
2022/09/28 00:26:40;;;;;;;15.50;10.95;;;;;;;;;;5112820;28;20043;-64
2022/09/28 00:29:07;;;;;;;15.80;11.05;;;;;;;;;;5113437;28;20039;-64
2022/09/28 00:31:33;;;;;;;19.95;12.18;;;;;;;;;;5112119;28;20039;-64
2022/09/28 00:34:04;;;;;;;16.85;11.35;;;;;;;;;;5094509;28;20035;-64
2022/09/28 00:36:31;;;;;;;17.70;11.07;;;;;;;;;;5113454;28;20058;-64
2022/09/28 00:38:57;;;;;;;17.45;11.55;;;;;;;;;;5113268;28;20043;-64
2022/09/28 00:41:25;;;;;;;16.90;11.57;;;;;;;;;;5112725;28;20047;-64
2022/09/28 00:43:51;;;;;;;21.15;12.65;;;;;;;;;;5112940;28;20040;-64
2022/09/28 00:46:46;;;;;;;21.77;13.07;;;;;;;;;;5113188;28;20450;-64
2022/09/28 00:49:15;;;;;;;16.73;12.05;;;;;;;;;;5091042;28;20048;-64
2022/09/28 00:51:41;;;;;;;19.33;12.77;;;;;;;;;;5113155;28;20108;-64
2022/09/28 00:54:08;;;;;;;22.92;13.27;;;;;;;;;;5113188;28;20434;-64
2022/09/28 00:56:35;;;;;;;19.73;13.32;;;;;;;;;;5112595;28;20057;-64
2022/09/28 00:59:03;;;;;;;21.98;12.57;;;;;;;;;;5112943;28;20477;-64
2022/09/28 01:01:30;;;;;;;21.25;13.88;;;;;;;;;;5112771;28;20047;-63
2022/09/28 01:03:57;;;;;;;19.63;13.50;;;;;;;;;;5112353;28;20040;-64
2022/09/28 01:06:29;;;;;;;22.85;14.02;;;;;;;;;;5112723;28;20462;-64
2022/09/28 01:08:57;;;;;;;21.73;13.75;;;;;;;;;;5112130;28;20067;-64
2022/09/28 01:11:24;;;;;;;22.65;13.52;;;;;;;;;;5112225;28;20040;-64
2022/09/28 01:13:51;;;;;;;24.05;14.10;;;;;;;;;;5114575;27;20047;-64
2022/09/28 01:16:29;;;;;;;20.92;14.20;;;;;;;;;;5133259;27;20116;-64
2022/09/28 01:19:07;;;;;;;21.65;14.30;;;;;;;;;;5132677;27;20079;-64
2022/09/28 01:21:40;;;;;;;20.45;13.93;;;;;;;;;;5132968;27;20122;-64
2022/09/28 01:24:25;;;;;;;23.98;14.45;;;;;;;;;;5132973;27;20047;-64
2022/09/28 01:26:54;;;;;;;21.77;14.48;;;;;;;;;;5116215;27;20031;-64
2022/09/28 01:29:43;;;;;;;24.23;14.68;;;;;;;;;;5111931;28;20502;-64
2022/09/28 01:32:15;;;;;;;21.48;14.32;;;;;;;;;;5093902;28;20035;-64
2022/09/28 01:34:56;;;;;;;22.08;14.60;;;;;;;;;;5111829;28;20036;-63
2022/09/28 01:37:25;;;;;;;25.73;15.10;;;;;;;;;;5112043;28;20074;-63
2022/09/28 01:39:52;;;;;;;23.15;15.02;;;;;;;;;;5112178;28;20042;-63
2022/09/28 01:42:24;;;;;;;21.20;13.48;;;;;;;;;;5111388;28;20035;-64
2022/09/28 01:44:51;;;;;;;20.33;13.75;;;;;;;;;;5112061;28;20457;-64
2022/09/28 01:47:19;;;;;;;20.77;14.70;;;;;;;;;;5111771;28;20043;-64
2022/09/28 01:49:47;;;;;;;23.42;14.75;;;;;;;;;;5111553;28;20382;-64
2022/09/28 01:52:22;;;;;;;23.88;14.40;;;;;;;;;;5093675;28;20603;-64
2022/09/28 01:54:49;;;;;;;25.73;14.63;;;;;;;;;;5111738;28;20058;-64
2022/09/28 01:57:18;;;;;;;21.35;13.82;;;;;;;;;;5111942;28;20040;-64
2022/09/28 01:59:50;;;;;;;22.80;15.23;;;;;;;;;;5111845;28;20063;-64
2022/09/28 02:02:18;;;;;;;25.02;14.57;;;;;;;;;;5111407;28;20027;-64
2022/09/28 02:04:53;;;;;;;27.08;16.60;;;;;;;;;;5111361;28;20043;-64
2022/09/28 02:07:22;;;;;;;26.05;16.83;;;;;;;;;;5111520;28;20401;-64
2022/09/28 02:09:51;;;;;;;24.42;15.52;;;;;;;;;;5110944;28;20134;-64
2022/09/28 02:12:33;;;;;;;26.58;16.30;;;;;;;;;;5116556;27;20051;-64
2022/09/28 02:15:06;;;;;;;26.48;15.85;;;;;;;;;;5132050;27;20054;-64
2022/09/28 02:17:32;;;;;;;27.45;15.63;;;;;;;;;;5131577;27;20031;-64
2022/09/28 02:19:58;;;;;;;24.55;15.48;;;;;;;;;;5131856;27;20035;-64
2022/09/28 02:22:36;;;;;;;23.15;15.95;;;;;;;;;;5131800;27;20164;-64
2022/09/28 02:25:06;;;;;;;27.92;15.88;;;;;;;;;;5130712;27;20480;-64
2022/09/28 02:27:35;;;;;;;34.05;17.83;;;;;;;;;;5111151;28;20035;-64
2022/09/28 02:30:01;;;;;;;28.58;17.55;;;;;;;;;;5111001;28;20032;-64
2022/09/28 02:32:28;;;;;;;30.05;18.77;;;;;;;;;;5110801;28;20112;-64
2022/09/28 02:34:55;;;;;;;27.75;17.52;;;;;;;;;;5111191;28;20146;-64
2022/09/28 02:37:21;;;;;;;31.95;18.17;;;;;;;;;;5111258;28;20132;-64
2022/09/28 02:39:47;;;;;;;47.45;19.35;;;;;;;;;;5110644;28;20043;-64
2022/09/28 02:42:25;;;;;;;29.33;17.92;;;;;;;;;;5110956;28;20044;-64
2022/09/28 02:44:56;;;;;;;34.83;19.15;;;;;;;;;;5111037;28;20775;-64
2022/09/28 02:47:28;;;;;;;24.73;16.63;;;;;;;;;;5110494;28;20046;-64
2022/09/28 02:49:54;;;;;;;24.65;16.05;;;;;;;;;;5111105;28;20039;-64
2022/09/28 02:52:32;;;;;;;29.48;17.92;;;;;;;;;;5111092;28;20047;-64
2022/09/28 02:55:01;;;;;;;28.40;17.00;;;;;;;;;;5112509;28;20042;-64
2022/09/28 02:57:38;;;;;;;29.45;18.10;;;;;;;;;;5115159;28;20047;-64
2022/09/28 03:00:09;;;;;;;27.90;17.15;;;;;;;;;;5115203;28;20119;-64
2022/09/28 03:02:41;;;;;;;27.90;17.35;;;;;;;;;;5114822;28;20407;-64
2022/09/28 03:05:29;;;;;;;27.05;17.25;;;;;;;;;;5114894;28;20067;-64
2022/09/28 03:07:59;;;;;;;27.90;16.27;;;;;;;;;;5114941;28;20118;-64
2022/09/28 03:10:43;;;;;;;30.95;17.08;;;;;;;;;;5127434;27;20527;-64
2022/09/28 03:13:10;;;;;;;25.95;16.75;;;;;;;;;;5135608;27;20047;-64
2022/09/28 03:15:37;;;;;;;27.63;16.92;;;;;;;;;;5135229;27;20057;-64
2022/09/28 03:18:03;;;;;;;26.70;15.75;;;;;;;;;;5134705;27;20039;-64
2022/09/28 03:20:30;;;;;;;37.33;16.23;;;;;;;;;;5135443;27;20039;-64
2022/09/28 03:22:56;;;;;;;28.02;16.30;;;;;;;;;;5134934;27;20050;-64
2022/09/28 03:25:22;;;;;;;31.95;15.63;;;;;;;;;;5131421;27;20114;-64
2022/09/28 03:27:48;;;;;;;51.92;17.67;;;;;;;;;;5114558;28;20108;-64
2022/09/28 03:30:14;;;;;;;46.90;17.90;;;;;;;;;;5114666;28;20538;-64
2022/09/28 03:32:40;;;;;;;46.85;18.27;;;;;;;;;;5095743;28;20416;-64
2022/09/28 03:35:07;;;;;;;45.30;17.70;;;;;;;;;;5114344;28;20047;-64
2022/09/28 03:37:33;;;;;;;41.58;16.95;;;;;;;;;;5114453;28;20043;-64
2022/09/28 03:39:59;;;;;;;35.58;15.45;;;;;;;;;;5114185;28;20495;-64
2022/09/28 03:42:25;;;;;;;25.23;14.63;;;;;;;;;;5114277;28;20047;-64
2022/09/28 03:44:51;;;;;;;45.83;15.30;;;;;;;;;;5114336;28;20039;-64
2022/09/28 03:47:18;;;;;;;37.83;16.10;;;;;;;;;;5113543;28;20051;-64
2022/09/28 03:49:44;;;;;;;40.95;17.02;;;;;;;;;;5114026;28;20039;-64
2022/09/28 03:52:11;;;;;;;34.55;16.48;;;;;;;;;;5114203;28;20046;-64
2022/09/28 03:54:37;;;;;;;30.90;16.67;;;;;;;;;;5113836;28;20047;-64
2022/09/28 03:57:03;;;;;;;39.28;16.65;;;;;;;;;;5114211;28;20042;-64
2022/09/28 03:59:29;;;;;;;27.30;15.32;;;;;;;;;;5113932;28;20045;-64
2022/09/28 04:01:55;;;;;;;65.40;16.50;;;;;;;;;;5113727;28;20039;-64
2022/09/28 04:04:22;;;;;;;32.78;15.05;;;;;;;;;;5113863;28;20590;-64
2022/09/28 04:06:48;;;;;;;62.95;16.45;;;;;;;;;;5132198;27;20118;-64
2022/09/28 04:09:14;;;;;;;129.73;17.60;;;;;;;;;;5133475;27;20691;-64
2022/09/28 04:11:40;;;;;;;93.38;19.10;;;;;;;;;;5134293;27;20126;-64
2022/09/28 04:14:06;;;;;;;94.25;17.27;;;;;;;;;;5134556;27;20046;-64
2022/09/28 04:16:33;;;;;;;41.25;15.55;;;;;;;;;;5134134;27;20084;-64
2022/09/28 04:18:59;;;;;;;136.90;18.50;;;;;;;;;;5134289;27;20047;-64
2022/09/28 04:21:25;;;;;;;48.42;16.20;;;;;;;;;;5134173;27;20039;-64
2022/09/28 04:23:52;;;;;;;31.63;15.20;;;;;;;;;;5133762;27;20050;-64
2022/09/28 04:26:23;;;;;;;61.55;16.67;;;;;;;;;;5104045;28;20040;-64
2022/09/28 04:31:39;;;;;;;68.45;16.35;;;;;;;;;;5112746;28;20043;-64
2022/09/28 04:34:05;;;;;;;30.95;16.13;;;;;;;;;;5113410;28;20040;-64
2022/09/28 04:36:31;;;;;;;68.22;17.42;;;;;;;;;;5113305;28;20071;-64
2022/09/28 04:38:57;;;;;;;150.43;18.63;;;;;;;;;;5094674;28;20472;-64
2022/09/28 04:41:24;;;;;;;36.72;17.92;;;;;;;;;;5113273;28;20035;-64
2022/09/28 04:43:50;;;;;;;45.45;15.95;;;;;;;;;;5113285;28;20517;-64
2022/09/28 04:46:16;;;;;;;28.63;15.25;;;;;;;;;;5112800;28;20149;-64
2022/09/28 04:48:42;;;;;;;63.83;16.23;;;;;;;;;;5112968;28;20038;-64
2022/09/28 04:51:08;;;;;;;49.00;15.15;;;;;;;;;;5112942;28;20465;-64
2022/09/28 04:53:34;;;;;;;131.52;16.52;;;;;;;;;;5112403;28;20126;-64
2022/09/28 04:56:01;;;;;;;54.60;14.65;;;;;;;;;;5112820;28;20054;-64
2022/09/28 04:58:27;;;;;;;28.25;14.13;;;;;;;;;;5112971;28;20474;-64
2022/09/28 05:00:56;;;;;;;123.75;17.15;;;;;;;;;;5112279;28;20438;-64
2022/09/28 05:03:22;;;;;;;28.83;13.45;;;;;;;;;;5112725;28;20252;-64
2022/09/28 05:05:48;;;;;;;33.45;13.50;;;;;;;;;;5110221;27;20042;-64
2022/09/28 05:08:15;;;;;;;37.45;13.88;;;;;;;;;;5112814;27;20046;-65
2022/09/28 05:10:41;;;;;;;107.03;16.48;;;;;;;;;;5125814;27;20056;-64
2022/09/28 05:13:08;;;;;;;59.42;15.27;;;;;;;;;;5112268;28;20043;-64
2022/09/28 05:15:34;;;;;;;44.25;14.60;;;;;;;;;;5111537;28;20070;-65
2022/09/28 05:18:00;;;;;;;50.92;14.88;;;;;;;;;;5093143;28;20183;-65
2022/09/28 05:20:26;;;;;;;92.60;15.15;;;;;;;;;;5111946;28;20473;-65
2022/09/28 05:22:52;;;;;;;56.25;14.93;;;;;;;;;;5110974;28;20039;-65
2022/09/28 05:25:19;;;;;;;44.05;14.00;;;;;;;;;;5114480;27;20027;-65
2022/09/28 05:27:45;;;;;;;23.50;13.23;;;;;;;;;;5132463;27;20620;-65
2022/09/28 05:30:11;;;;;;;37.83;13.25;;;;;;;;;;5111349;28;20036;-65
2022/09/28 05:32:43;;;;;;;43.55;13.38;;;;;;;;;;5111396;28;20036;-65
2022/09/28 05:35:10;;;;;;;52.42;13.50;;;;;;;;;;5111551;28;20047;-64
2022/09/28 05:37:40;;;;;;;21.70;13.18;;;;;;;;;;5110778;28;20134;-64
2022/09/28 05:40:06;;;;;;;23.83;13.13;;;;;;;;;;5093963;28;20044;-65
2022/09/28 05:42:32;;;;;;;28.25;13.15;;;;;;;;;;5111383;28;20390;-65
2022/09/28 05:44:58;;;;;;;30.77;13.73;;;;;;;;;;5111377;28;20038;-64
2022/09/28 05:47:25;;;;;;;21.35;13.45;;;;;;;;;;5092742;28;20042;-64
2022/09/28 05:49:51;;;;;;;31.40;14.05;;;;;;;;;;5111207;28;20042;-64
2022/09/28 05:52:17;;;;;;;56.55;14.43;;;;;;;;;;5110847;28;20126;-64
2022/09/28 05:54:43;;;;;;;42.53;14.57;;;;;;;;;;5109644;28;20066;-65
2022/09/28 05:57:10;;;;;;;37.42;14.57;;;;;;;;;;5092819;28;20040;-65
2022/09/28 05:59:36;;;;;;;44.92;14.60;;;;;;;;;;5110035;28;20038;-65
2022/09/28 06:02:02;;;;;;;29.08;14.63;;;;;;;;;;5110761;27;20038;-65
2022/09/28 06:04:28;;;;;;;29.88;15.50;;;;;;;;;;5110580;28;20044;-65
2022/09/28 06:06:54;;;;;;;23.52;15.25;;;;;;;;;;5110464;28;20031;-65
2022/09/28 06:09:22;;;;;;;25.00;14.63;;;;;;;;;;5110859;28;20085;-65
2022/09/28 06:11:48;;;;;;;37.10;14.45;;;;;;;;;;5110899;28;20089;-64
2022/09/28 06:14:14;;;;;;;29.08;16.27;;;;;;;;;;5109912;28;20109;-64
2022/09/28 06:16:41;;;;;;;72.22;16.40;;;;;;;;;;5110894;28;20039;-64
2022/09/28 06:19:10;;;;;;;37.72;15.27;;;;;;;;;;5109387;28;20035;-64
2022/09/28 06:21:36;;;;;;;36.00;15.98;;;;;;;;;;5109915;28;20039;-64
2022/09/28 06:24:03;;;;;;;30.98;15.52;;;;;;;;;;5112809;27;20039;-64
2022/09/28 06:26:29;;;;;;;29.23;16.23;;;;;;;;;;5116206;27;20077;-64
2022/09/28 06:28:55;;;;;;;25.83;16.10;;;;;;;;;;5109799;28;20532;-64
2022/09/28 06:31:22;;;;;;;28.10;16.15;;;;;;;;;;5109998;28;20073;-64
2022/09/28 06:33:49;;;;;;;30.65;17.25;;;;;;;;;;5110417;28;20043;-64
2022/09/28 06:36:15;;;;;;;26.50;15.88;;;;;;;;;;5106743;28;20109;-63
2022/09/28 06:38:41;;;;;;;32.53;15.55;;;;;;;;;;5109013;28;20095;-63
2022/09/28 06:41:08;;;;;;;35.88;16.83;;;;;;;;;;5114580;27;20118;-64
2022/09/28 06:43:34;;;;;;;24.75;15.85;;;;;;;;;;5116986;27;20145;-64
2022/09/28 06:46:00;;;;;;;28.30;15.38;;;;;;;;;;5118693;28;20106;-64
2022/09/28 06:48:26;;;;;;;48.92;16.13;;;;;;;;;;5109897;28;20036;-66
2022/09/28 06:50:52;;;;;;;62.85;16.63;;;;;;;;;;5109471;28;20036;-66
2022/09/28 06:53:19;;;;;;;41.35;15.63;;;;;;;;;;5090780;28;20068;-66
2022/09/28 06:55:47;;;;;;;46.15;16.58;;;;;;;;;;5091269;28;20067;-66
2022/09/28 06:58:14;;;;;;;34.72;15.80;;;;;;;;;;5118795;28;20128;-67
2022/09/28 07:00:41;;;;;;;58.70;15.55;;;;;;;;;;5110649;28;20062;-66
2022/09/28 07:03:10;;;;;;;38.47;16.48;;;;;;;;;;5109141;28;20044;-66
2022/09/28 07:05:37;;;;;;;24.73;13.80;;;;;;;;;;5110290;28;20036;-66
2022/09/28 07:08:04;;;;;;;41.63;16.23;;;;;;;;;;5108900;28;20032;-67
2022/09/28 07:10:30;;;;;;;42.17;15.60;;;;;;;;;;5114094;28;20490;-66
2022/09/28 07:12:57;;;;;;;25.83;15.45;;;;;;;;;;5119586;28;20031;-67
2022/09/28 07:15:24;;;;;;;24.73;15.30;;;;;;;;;;5114380;28;20044;-67
2022/09/28 07:17:56;;;;;;;26.73;14.98;;;;;;;;;;5094589;28;20047;-68
2022/09/28 07:20:23;;;;;;;25.20;14.70;;;;;;;;;;5110842;28;20042;-67
2022/09/28 07:22:53;;;;;;;23.80;14.52;;;;;;;;;;5110646;28;20441;-69
2022/09/28 07:25:19;;;;;;;22.55;14.43;;;;;;;;;;5093953;28;20046;-69
2022/09/28 07:27:46;;;;;;;25.45;15.55;;;;;;;;;;5101785;28;20408;-70
2022/09/28 07:30:12;;;;;;;26.23;15.77;;;;;;;;;;5096329;28;20495;-66
2022/09/28 07:32:39;;;;;;;27.80;15.60;;;;;;;;;;5113508;28;20088;-67
2022/09/28 07:35:07;;;;;;;24.80;15.07;;;;;;;;;;5118015;28;20131;-65
2022/09/28 07:37:34;;;;;;;23.83;14.98;;;;;;;;;;5117449;28;20046;-65
2022/09/28 07:42:46;;;;;;;27.15;15.77;;;;;;;;;;5112724;28;20040;-65
2022/09/28 07:45:12;;;;;;;25.80;15.25;;;;;;;;;;5112327;28;20031;-65
2022/09/28 07:47:38;;;;;;;26.27;14.23;;;;;;;;;;5123806;27;20036;-66
2022/09/28 07:50:05;;;;;;;24.23;14.52;;;;;;;;;;5112706;27;20093;-66
2022/09/28 07:52:33;;;;;;;25.20;15.32;;;;;;;;;;5112858;28;20040;-66
2022/09/28 07:55:00;;;;;;;26.23;15.45;;;;;;;;;;5112857;28;20105;-67
2022/09/28 07:57:27;;;;;;;21.15;13.68;;;;;;;;;;5107626;27;20040;-66
2022/09/28 07:59:53;;;;;;;24.80;15.13;;;;;;;;;;5117420;27;20117;-67
2022/09/28 08:02:19;;;;;;;25.70;15.43;;;;;;;;;;5113403;28;20719;-65
2022/09/28 08:04:49;;;;;;;23.52;14.35;;;;;;;;;;5112034;28;20031;-64
2022/09/28 08:07:16;;;;;;;25.85;15.05;;;;;;;;;;5112426;28;20031;-63
2022/09/28 08:09:42;;;;;;;24.95;15.18;;;;;;;;;;5114464;27;20047;-66
2022/09/28 08:12:08;;;;;;;22.73;14.40;;;;;;;;;;5111962;28;20038;-66
2022/09/28 08:14:36;;;;;;;23.02;14.60;;;;;;;;;;5112722;28;20071;-67
2022/09/28 08:17:02;;;;;;;24.50;13.95;;;;;;;;;;5117270;27;20043;-68
2022/09/28 08:22:14;;;;;;;20.10;11.93;;;;;;;;;;5111840;27;20049;-66
2022/09/28 08:24:40;;;;;;;22.75;13.25;;;;;;;;;;5118820;27;20039;-66
2022/09/28 08:27:06;;;;;;;21.10;12.45;;;;;;;;;;5121581;27;20085;-65
2022/09/28 08:29:32;;;;;;;21.60;12.70;;;;;;;;;;5098568;27;20118;-65
2022/09/28 08:31:58;;;;;;;20.55;12.18;;;;;;;;;;5122031;27;20040;-69
2022/09/28 08:34:26;;;;;;;20.90;12.30;;;;;;;;;;5093378;28;20035;-68
2022/09/28 08:36:52;;;;;;;20.05;12.15;;;;;;;;;;5111780;28;20047;-68
2022/09/28 08:39:18;;;;;;;18.58;11.32;;;;;;;;;;5112045;28;20039;-68
2022/09/28 08:41:59;;;;;;;18.88;11.48;;;;;;;;;;5112263;28;20079;-67
2022/09/28 08:44:26;;;;;;;21.73;12.38;;;;;;;;;;5111769;28;20094;-67
2022/09/28 08:47:00;;;;;;;18.13;11.00;;;;;;;;;;5116200;27;20071;-68
2022/09/28 08:49:47;;;;;;;16.73;10.27;;;;;;;;;;5113405;27;20046;-68
2022/09/28 08:52:22;;;;;;;18.73;11.73;;;;;;;;;;5110972;27;20036;-68
2022/09/28 08:55:07;;;;;;;17.67;10.70;;;;;;;;;;5093609;28;20053;-67
2022/09/28 08:57:45;;;;;;;18.33;10.80;;;;;;;;;;5110735;28;20375;-67
2022/09/28 09:00:17;;;;;;;18.05;11.32;;;;;;;;;;5105557;28;20067;-67
2022/09/28 09:02:45;;;;;;;18.23;11.45;;;;;;;;;;5111602;28;20044;-68
2022/09/28 09:05:13;;;;;;;18.20;11.45;;;;;;;;;;5111966;27;20062;-68
2022/09/28 09:07:45;;;;;;;17.58;11.32;;;;;;;;;;5121199;27;20110;-67
2022/09/28 09:10:17;;;;;;;18.55;10.98;;;;;;;;;;5111314;27;20039;-68
2022/09/28 09:12:51;;;;;;;16.42;10.48;;;;;;;;;;5121393;27;20112;-66
2022/09/28 09:15:18;;;;;;;19.33;10.35;;;;;;;;;;5117732;27;20752;-67
2022/09/28 09:17:44;;;;;;;15.48;9.10;;;;;;;;;;5097300;28;20051;-67
2022/09/28 09:20:17;;;;;;;15.07;8.75;;;;;;;;;;5118254;27;20039;-69
2022/09/28 09:22:51;;;;;;;15.93;8.68;;;;;;;;;;5110925;27;20592;-67
2022/09/28 09:25:17;;;;;;;14.02;8.15;;;;;;;;;;5116692;27;20102;-67
2022/09/28 09:28:02;;;;;;;14.73;8.95;;;;;;;;;;5127947;27;20035;-66
2022/09/28 09:30:32;;;;;;;14.77;8.77;;;;;;;;;;5118638;27;20042;-67
2022/09/28 09:33:04;;;;;;;15.35;8.95;;;;;;;;;;5097382;28;20039;-68
2022/09/28 09:35:49;;;;;;;13.05;8.63;;;;;;;;;;5111454;28;20039;-66
2022/09/28 09:38:18;;;;;;;13.65;7.82;;;;;;;;;;5109777;28;20051;-66
2022/09/28 09:41:02;;;;;;;9.52;6.07;;;;;;;;;;5110275;28;20377;-66
2022/09/28 09:43:31;;;;;;;10.07;6.47;;;;;;;;;;5094971;27;20086;-67
2022/09/28 09:46:06;;;;;;;8.80;5.63;;;;;;;;;;5119330;27;20060;-67
2022/09/28 09:48:55;;;;;;;8.32;4.50;;;;;;;;;;5115323;27;20035;-67
2022/09/28 09:51:25;;;;;;;7.55;4.68;;;;;;;;;;5115112;27;20036;-68
2022/09/28 09:54:03;;;;;;;10.65;5.68;;;;;;;;;;5109859;28;20161;-68
2022/09/28 09:56:37;;;;;;;8.00;5.45;;;;;;;;;;5091547;28;20067;-70
2022/09/28 09:59:07;;;;;;;10.23;6.75;;;;;;;;;;5112301;27;20039;-68
2022/09/28 10:01:38;;;;;;;11.20;6.03;;;;;;;;;;5113476;27;20059;-68
2022/09/28 10:04:13;;;;;;;10.90;5.97;;;;;;;;;;5110761;27;20032;-68
2022/09/28 10:06:41;;;;;;;8.18;5.10;;;;;;;;;;5114779;27;20078;-69
2022/09/28 10:09:13;;;;;;;10.02;6.15;;;;;;;;;;5117580;27;20067;-69
2022/09/28 10:11:42;;;;;;;7.95;5.43;;;;;;;;;;5126054;27;20170;-67
2022/09/28 10:14:13;;;;;;;4.80;4.03;;;;;;;;;;5110153;28;20043;-68
2022/09/28 10:16:39;;;;;;;5.15;3.50;;;;;;;;;;5110150;28;20444;-67
2022/09/28 10:19:05;;;;;;;5.93;3.35;;;;;;;;;;5122158;27;20167;-68
2022/09/28 10:21:36;;;;;;;5.53;3.83;;;;;;;;;;5120798;27;20472;-70
2022/09/28 10:24:02;;;;;;;4.90;3.35;;;;;;;;;;5113583;27;20073;-66
2022/09/28 10:26:33;;;;;;;7.15;3.72;;;;;;;;;;5121410;27;20039;-66
2022/09/28 10:29:03;;;;;;;5.47;3.53;;;;;;;;;;5126825;27;20118;-66
2022/09/28 10:31:36;;;;;;;4.93;3.20;;;;;;;;;;5105509;28;20604;-67
2022/09/28 10:34:03;;;;;;;7.68;3.42;;;;;;;;;;5109088;28;20035;-66
2022/09/28 10:36:37;;;;;;;5.35;2.78;;;;;;;;;;5123988;27;20069;-66
2022/09/28 10:39:03;;;;;;;5.70;2.13;;;;;;;;;;5109570;28;20097;-66
2022/09/28 10:41:30;;;;;;;3.63;2.08;;;;;;;;;;5109361;28;20045;-67
2022/09/28 10:44:09;;;;;;;3.33;2.05;;;;;;;;;;5109907;28;20123;-67
2022/09/28 10:46:37;;;;;;;3.03;2.15;;;;;;;;;;5109540;28;20513;-67
2022/09/28 10:49:05;;;;;;;2.58;2.00;;;;;;;;;;5108778;28;20034;-66
2022/09/28 10:51:42;;;;;;;4.28;2.35;;;;;;;;;;5109826;28;20080;-66
2022/09/28 10:54:16;;;;;;;3.20;2.20;;;;;;;;;;5109657;28;20051;-66
2022/09/28 10:56:42;;;;;;;3.72;1.60;;;;;;;;;;5109608;28;20678;-66
2022/09/28 10:59:35;;;;;;;3.13;1.60;;;;;;;;;;5109659;28;20051;-66
2022/09/28 11:02:03;;;;;;;4.60;1.90;;;;;;;;;;5108884;28;20123;-66
2022/09/28 11:04:34;;;;;;;3.13;1.42;;;;;;;;;;5109776;28;20165;-66
2022/09/28 11:07:01;;;;;;;1.88;1.30;;;;;;;;;;5108148;28;20035;-66
2022/09/28 11:09:36;;;;;;;2.33;1.27;;;;;;;;;;5108477;28;20073;-67
2022/09/28 11:12:04;;;;;;;3.53;1.25;;;;;;;;;;5120055;28;20099;-66
2022/09/28 11:14:35;;;;;;;3.17;1.02;;;;;;;;;;5095497;28;20060;-67
2022/09/28 11:17:20;;;;;;;4.28;1.58;;;;;;;;;;5093478;28;20470;-66
2022/09/28 11:19:46;;;;;;;3.00;1.20;;;;;;;;;;5110190;28;20079;-69
2022/09/28 11:22:23;;;;;;;1.42;1.10;;;;;;;;;;5113533;28;20040;-67
2022/09/28 11:24:49;;;;;;;3.20;1.33;;;;;;;;;;5092224;28;20122;-67
2022/09/28 11:27:23;;;;;;;2.47;1.30;;;;;;;;;;5114343;27;20474;-65
2022/09/28 11:29:55;;;;;;;2.30;1.05;;;;;;;;;;5118916;27;20055;-66
2022/09/28 11:32:23;;;;;;;1.48;0.93;;;;;;;;;;5113282;28;20046;-67
2022/09/28 11:34:51;;;;;;;2.40;1.23;;;;;;;;;;5112962;28;20042;-67
2022/09/28 11:37:36;;;;;;;2.13;0.98;;;;;;;;;;5113512;28;20043;-71
2022/09/28 11:40:11;;;;;;;2.58;1.08;;;;;;;;;;5094735;28;20086;-68
2022/09/28 11:42:43;;;;;;;2.38;1.33;;;;;;;;;;5113119;28;20035;-65
2022/09/28 11:45:36;;;;;;;3.20;1.00;;;;;;;;;;5113112;28;20123;-65
2022/09/28 11:48:04;;;;;;;1.88;1.13;;;;;;;;;;5061706;28;20044;-67
2022/09/28 11:50:30;;;;;;;2.67;1.38;;;;;;;;;;5109894;28;20119;-66
2022/09/28 11:53:09;;;;;;;2.17;0.90;;;;;;;;;;5114167;28;20426;-67
2022/09/28 11:55:41;;;;;;;3.63;1.33;;;;;;;;;;5112479;28;20035;-68
2022/09/28 11:58:07;;;;;;;;;;;;;;;;;;5106659;28;20039;-70
2022/09/28 12:00:37;;;;;;;1.95;1.17;;;;;;;;;;5094320;28;19972;-71
2022/09/28 12:03:17;;;;;;;1.77;1.05;;;;;;;;;;5090178;28;20512;-70
2022/09/28 12:05:56;;;;;;;1.77;1.15;;;;;;;;;;5094233;28;20366;-69
2022/09/28 12:08:29;;;;;;;1.23;0.98;;;;;;;;;;5112651;28;20545;-72
2022/09/28 12:11:02;;;;;;;1.23;0.70;;;;;;;;;;5111828;28;20653;-73
2022/09/28 12:13:28;;;;;;;;;;;;;;;;;;5074573;28;20117;-71
2022/09/28 12:16:17;;;;;;;1.65;0.80;;;;;;;;;;5111128;28;20413;-70
2022/09/28 12:18:46;;;;;;;2.15;0.80;;;;;;;;;;5098657;28;20075;-69
2022/09/28 12:21:32;;;;;;;2.33;0.85;;;;;;;;;;5112702;28;20470;-71
2022/09/28 12:24:03;;;;;;;0.60;0.60;;;;;;;;;;5076692;28;20442;-71
2022/09/28 12:26:32;;;;;;;1.13;0.60;;;;;;;;;;5096162;28;20565;-70
2022/09/28 12:29:00;;;;;;;0.55;0.55;;;;;;;;;;5092549;28;20057;-69
2022/09/28 12:31:32;;;;;;;1.98;0.70;;;;;;;;;;5093396;28;20044;-71
2022/09/28 12:33:58;;;;;;;1.48;0.60;;;;;;;;;;5112038;28;20238;-71
2022/09/28 12:36:43;;;;;;;1.35;0.60;;;;;;;;;;5112659;28;20040;-71
2022/09/28 12:39:12;;;;;;;1.65;0.80;;;;;;;;;;5111691;28;20041;-73
2022/09/28 12:41:57;;;;;;;1.77;0.70;;;;;;;;;;5094969;28;20051;-73
2022/09/28 12:44:26;;;;;;;1.15;0.70;;;;;;;;;;5093313;28;20040;-74
2022/09/28 12:46:59;;;;;;;1.55;0.60;;;;;;;;;;5076047;28;20036;-74
2022/09/28 12:49:25;;;;;;;;;;;;;;;;;;5073275;28;20119;-74
2022/09/28 12:51:52;;;;;;;0.30;0.22;;;;;;;;;;5089443;28;20381;-72
2022/09/28 12:54:37;;;;;;;2.72;0.88;;;;;;;;;;5093510;28;20097;-73
2022/09/28 12:57:13;;;;;;;2.33;0.60;;;;;;;;;;5093615;28;20047;-72
2022/09/28 12:59:49;;;;;;;1.30;0.40;;;;;;;;;;5075837;28;20040;-72
2022/09/28 13:02:35;;;;;;;2.92;0.68;;;;;;;;;;5093301;28;20032;-76
2022/09/28 13:05:01;;;;;;;2.17;0.50;;;;;;;;;;5076990;28;20452;-72
2022/09/28 13:07:44;;;;;;;0.68;0.32;;;;;;;;;;5093535;28;20402;-76
2022/09/28 13:10:12;;;;;;;2.15;0.52;;;;;;;;;;5092556;28;20621;-76
2022/09/28 13:12:41;;;;;;;1.05;0.40;;;;;;;;;;5093420;28;20126;-75
2022/09/28 13:15:22;;;;;;;0.30;0.30;;;;;;;;;;5092190;28;20035;-70
2022/09/28 13:18:15;;;;;;;1.73;0.32;;;;;;;;;;5093416;28;20472;-65
2022/09/28 13:20:56;;;;;;;1.02;0.35;;;;;;;;;;5065496;27;20043;-68
2022/09/28 13:23:42;;;;;;;1.98;0.30;;;;;;;;;;5088099;28;20501;-68
2022/09/28 13:26:13;;;;;;;1.10;0.30;;;;;;;;;;5091980;28;20133;-68
2022/09/28 13:28:41;;;;;;;0.77;0.20;;;;;;;;;;5110619;27;20116;-68
2022/09/28 13:31:08;;;;;;;1.60;0.35;;;;;;;;;;5081385;27;20512;-67
2022/09/28 13:33:36;;;;;;;0.82;0.30;;;;;;;;;;5082200;28;20043;-69
2022/09/28 13:36:03;;;;;;;1.30;0.40;;;;;;;;;;5088610;27;20122;-67
2022/09/28 13:38:30;;;;;;;0.60;0.40;;;;;;;;;;5109132;28;20504;-68
2022/09/28 13:41:08;;;;;;;0.47;0.30;;;;;;;;;;5092924;27;20084;-67
2022/09/28 13:43:40;;;;;;;1.17;0.25;;;;;;;;;;5112185;27;20039;-68
2022/09/28 13:46:06;;;;;;;;;;;;;;;;;;5117825;27;20062;-67
2022/09/28 13:48:54;;;;;;;0.82;0.20;;;;;;;;;;5108772;27;20400;-67
2022/09/28 13:51:23;;;;;;;2.72;0.20;;;;;;;;;;5095338;28;20042;-67
2022/09/28 13:54:22;;;;;;;1.33;0.20;;;;;;;;;;5100883;27;20039;-67
2022/09/28 13:56:51;;;;;;;1.88;0.43;;;;;;;;;;5042452;27;20055;-67
2022/09/28 13:59:17;;;;;;;2.72;0.52;;;;;;;;;;5094858;28;20048;-69
2022/09/28 14:02:10;;;;;;;1.40;0.30;;;;;;;;;;5094371;28;20051;-66
2022/09/28 14:04:54;;;;;;;1.10;0.38;;;;;;;;;;5089478;28;20074;-63
2022/09/28 14:07:22;;;;;;;1.30;0.50;;;;;;;;;;5098135;28;20039;-64
2022/09/28 14:10:07;;;;;;;1.83;0.50;;;;;;;;;;5109670;27;20118;-66
2022/09/28 14:12:33;;;;;;;2.33;0.40;;;;;;;;;;5108635;28;20493;-66
2022/09/28 14:14:59;;;;;;;2.80;0.90;;;;;;;;;;5108650;27;20069;-66
2022/09/28 14:17:30;;;;;;;2.35;1.00;;;;;;;;;;5105880;28;20054;-67
2022/09/28 14:19:59;;;;;;;2.72;0.80;;;;;;;;;;5109901;27;20115;-67
2022/09/28 14:22:46;;;;;;;1.77;0.70;;;;;;;;;;5109595;28;20584;-69
2022/09/28 14:25:17;;;;;;;2.30;0.70;;;;;;;;;;5104419;27;20040;-67
2022/09/28 14:28:01;;;;;;;0.80;0.50;;;;;;;;;;5104376;28;20036;-69
2022/09/28 14:30:48;;;;;;;0.95;0.40;;;;;;;;;;5107671;28;20077;-68
2022/09/28 14:33:20;;;;;;;1.55;0.50;;;;;;;;;;5081857;28;20108;-69
2022/09/28 14:35:57;;;;;;;1.80;0.47;;;;;;;;;;5105267;28;20101;-69
2022/09/28 14:41:44;;;;;;;1.00;0.65;;;;;;;;;;5030447;28;20103;-70
2022/09/28 14:44:11;;;;;;;0.85;0.60;;;;;;;;;;5080376;28;20067;-70
2022/09/28 14:46:42;;;;;;;2.17;0.70;;;;;;;;;;5109200;28;20235;-70
2022/09/28 14:49:18;;;;;;;0.93;0.60;;;;;;;;;;5092886;28;20051;-67
2022/09/28 14:51:47;;;;;;;0.77;0.40;;;;;;;;;;5108402;28;20047;-69
2022/09/28 14:54:20;;;;;;;3.47;0.73;;;;;;;;;;5088892;28;20074;-66
2022/09/28 14:56:57;;;;;;;1.40;0.50;;;;;;;;;;5093739;28;20036;-67